Time;durP1;ratioP1;P1;durP2;ratioP2;P2;SDS_P1;SDS_P2;PMS_P1;PMS_P2;Temp;Humidity;BMP_temperature;BMP_pressure;BME280_temperature;BME280_humidity;BME280_pressure;Samples;Min_cycle;Max_cycle;Signal;HPM_P1;HPM_P2
2022/08/17 00:02:07;;;;;;;;;;;;;;;26.26;70.52;98894.09;5050994;28;19958;-77
2022/08/17 00:04:34;;;;;;;;;;;;;;;26.23;70.84;98892.59;5048676;28;20335;-76
2022/08/17 00:07:00;;;;;;;;;;;;;;;26.21;71.01;98893.72;5051011;28;19957;-76
2022/08/17 00:09:27;;;;;;;;;;;;;;;26.18;71.33;98894.03;5051630;28;19955;-76
2022/08/17 00:11:54;;;;;;;;;;;;;;;26.19;71.05;98900.94;5049010;28;19956;-77
2022/08/17 00:14:22;;;;;;;;;;;;;;;26.18;71.38;98896.66;5051952;28;19973;-77
2022/08/17 00:16:50;;;;;;;;;;;;;;;26.17;71.67;98892.41;5057377;28;20012;-76
2022/08/17 00:19:18;;;;;;;;;;;;;;;26.12;71.93;98890.22;5058031;28;20419;-76
2022/08/17 00:21:45;;;;;;;;;;;;;;;26.10;71.59;98893.00;5055842;28;19962;-77
2022/08/17 00:24:12;;;;;;;;;;;;;;;26.03;71.23;98897.22;5058698;28;20003;-76
2022/08/17 00:26:39;;;;;;;;;;;;;;;25.94;71.55;98895.53;5057892;28;20387;-76
2022/08/17 00:29:05;;;;;;;;;;;;;;;25.82;72.11;98899.38;5058136;28;19961;-76
2022/08/17 00:31:34;;;;;;;;;;;;;;;25.75;71.47;98895.72;5057968;28;20351;-76
2022/08/17 00:34:01;;;;;;;;;;;;;;;25.67;71.79;98895.69;5058491;28;19931;-76
2022/08/17 00:36:30;;;;;;;;;;;;;;;25.56;73.02;98888.06;5058633;28;19920;-77
2022/08/17 00:38:57;;;;;;;;;;;;;;;25.45;73.26;98890.91;5057473;28;19920;-76
2022/08/17 00:41:25;;;;;;;;;;;;;;;25.33;73.48;98887.69;5056355;28;20407;-77
2022/08/17 00:43:53;;;;;;;;;;;;;;;25.28;73.91;98891.75;5058181;28;19927;-76
2022/08/17 00:46:20;;;;;;;;;;;;;;;25.18;74.23;98885.75;5058379;28;19920;-77
2022/08/17 00:48:48;;;;;;;;;;;;;;;25.05;75.14;98889.59;5057597;28;19927;-75
2022/08/17 00:51:18;;;;;;;;;;;;;;;24.97;75.46;98886.06;5057269;28;19934;-77
2022/08/17 00:53:47;;;;;;;;;;;;;;;24.92;75.48;98899.63;5057934;28;19921;-77
2022/08/17 00:56:17;;;;;;;;;;;;;;;24.83;76.04;98889.19;5057708;28;19924;-76
2022/08/17 00:58:44;;;;;;;;;;;;;;;24.83;75.92;98890.03;5057543;28;19926;-76
2022/08/17 01:01:12;;;;;;;;;;;;;;;24.82;75.97;98896.22;5056402;28;19921;-77
2022/08/17 01:03:39;;;;;;;;;;;;;;;24.78;75.43;98891.41;5058166;28;19925;-77
2022/08/17 01:06:08;;;;;;;;;;;;;;;24.76;75.66;98888.09;5057421;28;19925;-77
2022/08/17 01:08:35;;;;;;;;;;;;;;;24.78;75.62;98888.78;5056590;28;20315;-76
2022/08/17 01:11:04;;;;;;;;;;;;;;;24.81;75.01;98891.94;5057631;28;19953;-77
2022/08/17 01:13:32;;;;;;;;;;;;;;;24.85;74.66;98890.69;5057604;28;19960;-77
2022/08/17 01:16:03;;;;;;;;;;;;;;;24.90;74.31;98898.94;5057737;28;19921;-77
2022/08/17 01:18:29;;;;;;;;;;;;;;;24.96;74.11;98900.97;5056297;28;20396;-76
2022/08/17 01:20:58;;;;;;;;;;;;;;;25.02;74.52;98894.28;5057266;28;20281;-77
2022/08/17 01:23:27;;;;;;;;;;;;;;;25.08;74.10;98893.69;5055884;28;19921;-77
2022/08/17 01:25:55;;;;;;;;;;;;;;;25.12;73.70;98892.44;5056332;28;19921;-77
2022/08/17 01:28:23;;;;;;;;;;;;;;;25.17;73.67;98892.78;5051887;28;19927;-77
2022/08/17 01:30:49;;;;;;;;;;;;;;;25.23;73.27;98899.25;5052174;28;19927;-76
2022/08/17 01:33:16;;;;;;;;;;;;;;;25.25;72.72;98894.66;5052261;28;19921;-76
2022/08/17 01:35:42;;;;;;;;;;;;;;;25.26;72.40;98893.69;5052380;28;20434;-76
2022/08/17 01:38:09;;;;;;;;;;;;;;;25.22;72.87;98887.09;5052156;28;19920;-77
2022/08/17 01:40:39;;;;;;;;;;;;;;;25.11;72.63;98877.66;5051253;28;19927;-76
2022/08/17 01:43:08;;;;;;;;;;;;;;;25.05;72.75;98879.09;5054160;28;19925;-77
2022/08/17 01:45:44;;;;;;;;;;;;;;;25.00;73.15;98877.91;5053671;28;19927;-76
2022/08/17 01:48:11;;;;;;;;;;;;;;;24.93;73.71;98874.22;5053859;28;19928;-77
2022/08/17 01:50:39;;;;;;;;;;;;;;;24.90;74.23;98867.47;5053327;28;19920;-76
2022/08/17 01:53:07;;;;;;;;;;;;;;;24.82;73.76;98866.56;5053766;28;19924;-77
2022/08/17 01:55:37;;;;;;;;;;;;;;;24.82;74.06;98870.00;5053583;28;19921;-77
2022/08/17 01:58:08;;;;;;;;;;;;;;;24.81;74.44;98864.91;5047239;28;19921;-76
2022/08/17 02:00:35;;;;;;;;;;;;;;;24.78;74.17;98867.81;5053765;28;19978;-77
2022/08/17 02:03:01;;;;;;;;;;;;;;;24.74;74.66;98863.84;5050794;28;19927;-76
2022/08/17 02:05:28;;;;;;;;;;;;;;;24.69;74.99;98858.19;5051621;28;20388;-77
2022/08/17 02:07:55;;;;;;;;;;;;;;;24.65;74.99;98852.47;5052850;28;20363;-76
2022/08/17 02:10:21;;;;;;;;;;;;;;;24.63;75.11;98857.00;5053952;28;19927;-77
2022/08/17 02:12:49;;;;;;;;;;;;;;;24.63;75.23;98854.38;5052040;28;20434;-76
2022/08/17 02:15:17;;;;;;;;;;;;;;;24.62;75.44;98855.34;5054159;28;19924;-77
2022/08/17 02:17:44;;;;;;;;;;;;;;;24.60;75.17;98873.03;5052643;28;19921;-77
2022/08/17 02:20:11;;;;;;;;;;;;;;;24.62;75.01;98873.69;5053317;28;19920;-77
2022/08/17 02:22:39;;;;;;;;;;;;;;;24.61;75.54;98864.19;5053691;28;19928;-77
2022/08/17 02:25:08;;;;;;;;;;;;;;;24.59;75.61;98870.56;5052985;28;20292;-76
2022/08/17 02:27:36;;;;;;;;;;;;;;;24.55;76.33;98872.66;5053489;28;19920;-76
2022/08/17 02:30:03;;;;;;;;;;;;;;;24.52;76.27;98870.34;5052750;28;19980;-76
2022/08/17 02:32:31;;;;;;;;;;;;;;;24.45;77.07;98861.41;5052371;28;19935;-76
2022/08/17 02:34:58;;;;;;;;;;;;;;;24.42;77.03;98864.31;5052879;28;19928;-76
2022/08/17 02:37:25;;;;;;;;;;;;;;;24.38;77.16;98865.56;5052865;28;19928;-76
2022/08/17 02:39:51;;;;;;;;;;;;;;;24.34;78.17;98862.41;5050044;28;19921;-76
2022/08/17 02:42:18;;;;;;;;;;;;;;;24.25;78.10;98876.41;5050876;28;19928;-76
2022/08/17 02:44:45;;;;;;;;;;;;;;;24.19;78.52;98876.16;5052927;28;19920;-76
2022/08/17 02:47:11;;;;;;;;;;;;;;;24.17;78.78;98872.88;5052035;28;20323;-76
2022/08/17 02:49:39;;;;;;;;;;;;;;;24.13;79.39;98866.25;5052627;28;19925;-77
2022/08/17 02:52:07;;;;;;;;;;;;;;;24.11;79.26;98862.91;5051618;28;19928;-76
2022/08/17 02:54:34;;;;;;;;;;;;;;;24.08;79.41;98871.06;5052738;28;20335;-76
2022/08/17 02:57:01;;;;;;;;;;;;;;;24.04;79.68;98866.09;5052699;28;19924;-76
2022/08/17 02:59:28;;;;;;;;;;;;;;;24.03;79.42;98866.25;5052212;28;19994;-76
2022/08/17 03:01:54;;;;;;;;;;;;;;;24.03;79.28;98872.34;5052211;28;19927;-76
2022/08/17 03:04:21;;;;;;;;;;;;;;;24.02;79.71;98868.06;5052464;28;19920;-76
2022/08/17 03:06:49;;;;;;;;;;;;;;;24.00;79.65;98875.25;5052292;28;20303;-77
2022/08/17 03:09:16;;;;;;;;;;;;;;;23.98;78.95;98881.56;5050596;28;19931;-77
2022/08/17 03:11:43;;;;;;;;;;;;;;;23.99;79.17;98873.56;5051516;28;20356;-77
2022/08/17 03:14:09;;;;;;;;;;;;;;;24.00;79.45;98880.47;5051487;28;19962;-76
2022/08/17 03:16:37;;;;;;;;;;;;;;;24.01;79.64;98879.47;5051000;28;20383;-77
2022/08/17 03:19:03;;;;;;;;;;;;;;;24.02;79.80;98883.75;5052085;28;19924;-76
2022/08/17 03:21:30;;;;;;;;;;;;;;;24.04;80.04;98887.06;5052042;28;19927;-76
2022/08/17 03:23:58;;;;;;;;;;;;;;;24.05;79.71;98882.66;5052015;28;19921;-76
2022/08/17 03:26:24;;;;;;;;;;;;;;;24.09;79.80;98883.19;5052233;28;19920;-76
2022/08/17 03:28:51;;;;;;;;;;;;;;;24.10;79.47;98884.84;5051937;28;20011;-76
2022/08/17 03:31:19;;;;;;;;;;;;;;;24.12;79.35;98893.41;5051741;28;19971;-76
2022/08/17 03:33:46;;;;;;;;;;;;;;;24.08;79.19;98892.00;5049741;28;20382;-76
2022/08/17 03:36:12;;;;;;;;;;;;;;;24.00;79.92;98895.34;5050022;28;19921;-77
2022/08/17 03:38:39;;;;;;;;;;;;;;;23.92;79.89;98892.63;5049697;28;20015;-76
2022/08/17 03:41:07;;;;;;;;;;;;;;;23.82;80.48;98891.81;5049677;28;19925;-76
2022/08/17 03:43:34;;;;;;;;;;;;;;;23.78;80.78;98891.25;5049029;28;19924;-76
2022/08/17 03:57:00;;;;;;;;;;;;;;;23.77;81.26;98907.97;5047555;28;19927;-76
2022/08/17 03:59:27;;;;;;;;;;;;;;;23.84;80.74;98911.66;5051421;28;19927;-76
2022/08/17 04:01:55;;;;;;;;;;;;;;;23.93;80.98;98923.91;5050664;28;19929;-76
2022/08/17 04:04:21;;;;;;;;;;;;;;;23.99;80.24;98925.94;5051441;28;20368;-76
2022/08/17 04:06:48;;;;;;;;;;;;;;;24.01;80.47;98929.25;5051048;28;19921;-76
2022/08/17 04:09:15;;;;;;;;;;;;;;;24.00;80.97;98922.38;5048145;28;19921;-77
2022/08/17 04:11:41;;;;;;;;;;;;;;;23.99;81.11;98925.94;5049624;28;21652;-76
2022/08/17 04:14:09;;;;;;;;;;;;;;;23.94;81.85;98922.91;5050922;28;19921;-76
2022/08/17 04:16:36;;;;;;;;;;;;;;;23.92;82.09;98930.09;5051322;28;20291;-77
2022/08/17 04:19:04;;;;;;;;;;;;;;;23.86;82.22;98935.91;5050787;28;19920;-77
2022/08/17 04:21:31;;;;;;;;;;;;;;;23.81;82.39;98932.88;5050649;28;19921;-77
2022/08/17 04:23:57;;;;;;;;;;;;;;;23.80;82.72;98928.63;5050028;28;20008;-76
2022/08/17 04:26:24;;;;;;;;;;;;;;;23.76;82.02;98929.84;5050965;28;19925;-77
2022/08/17 04:28:51;;;;;;;;;;;;;;;23.72;82.09;98928.47;5049593;28;19921;-77
2022/08/17 04:31:19;;;;;;;;;;;;;;;23.76;81.27;98929.84;5047486;28;19925;-76
2022/08/17 04:33:45;;;;;;;;;;;;;;;23.80;81.64;98936.47;5048103;28;19924;-77
2022/08/17 04:36:13;;;;;;;;;;;;;;;23.86;81.12;98935.91;5049718;28;19920;-76
2022/08/17 04:38:41;;;;;;;;;;;;;;;23.97;79.94;98942.78;5047312;28;19925;-76
2022/08/17 04:43:54;;;;;;;;;;;;;;;24.26;78.85;98937.47;5050646;28;20016;-76
2022/08/17 04:46:24;;;;;;;;;;;;;;;24.44;78.25;98935.72;5049663;28;19978;-77
2022/08/17 04:48:52;;;;;;;;;;;;;;;24.59;77.20;98939.50;5050486;28;19964;-77
2022/08/17 04:51:20;;;;;;;;;;;;;;;24.75;76.30;98939.69;5050351;28;19921;-77
2022/08/17 04:53:47;;;;;;;;;;;;;;;24.91;76.51;98931.25;5051011;28;19920;-76
2022/08/17 04:56:15;;;;;;;;;;;;;;;25.03;75.12;98933.50;5050889;28;19947;-76
2022/08/17 04:58:42;;;;;;;;;;;;;;;25.18;75.47;98940.84;5050674;28;19920;-77
2022/08/17 05:01:08;;;;;;;;;;;;;;;25.34;73.29;98939.19;5050012;28;19928;-75
2022/08/17 05:03:36;;;;;;;;;;;;;;;25.52;72.25;98944.47;5053419;28;20015;-77
2022/08/17 05:06:03;;;;;;;;;;;;;;;25.65;71.79;98942.28;5053471;28;19921;-77
2022/08/17 05:08:30;;;;;;;;;;;;;;;25.76;72.55;98947.28;5053305;28;19928;-76
2022/08/17 05:10:56;;;;;;;;;;;;;;;25.88;71.56;98951.28;5053204;28;19935;-77
2022/08/17 05:13:24;;;;;;;;;;;;;;;26.04;70.74;98953.22;5053878;28;20438;-77
2022/08/17 05:15:53;;;;;;;;;;;;;;;26.20;69.96;98952.53;5054654;28;19961;-77
2022/08/17 05:18:20;;;;;;;;;;;;;;;26.31;69.49;98962.75;5053875;28;19958;-76
2022/08/17 05:20:48;;;;;;;;;;;;;;;26.36;68.97;98963.94;5054343;28;19958;-77
2022/08/17 05:23:16;;;;;;;;;;;;;;;26.47;68.51;98962.84;5054552;28;19959;-74
2022/08/17 05:25:45;;;;;;;;;;;;;;;26.60;68.53;98963.22;5054503;28;20307;-76
2022/08/17 05:28:11;;;;;;;;;;;;;;;26.65;67.11;98960.97;5054270;28;19921;-75
2022/08/17 05:30:38;;;;;;;;;;;;;;;26.80;67.30;98964.63;5053523;28;19957;-76
2022/08/17 05:33:06;;;;;;;;;;;;;;;26.80;65.73;98964.63;5052926;28;19928;-75
2022/08/17 05:35:34;;;;;;;;;;;;;;;26.82;67.32;98965.31;5052659;28;20370;-75
2022/08/17 05:38:02;;;;;;;;;;;;;;;26.93;66.18;98965.03;5053642;28;19928;-77
2022/08/17 05:40:29;;;;;;;;;;;;;;;27.07;65.71;98964.41;5053322;28;19951;-76
2022/08/17 05:43:04;;;;;;;;;;;;;;;27.23;66.58;98965.41;5053873;28;20418;-77
2022/08/17 05:45:31;;;;;;;;;;;;;;;27.43;65.75;98966.78;5052068;28;20358;-76
2022/08/17 05:47:58;;;;;;;;;;;;;;;27.66;64.83;98967.78;5052867;28;19960;-76
2022/08/17 05:50:26;;;;;;;;;;;;;;;27.88;63.85;98961.84;5052671;28;19970;-76
2022/08/17 05:52:56;;;;;;;;;;;;;;;28.06;61.70;98965.13;5048946;28;19970;-75
2022/08/17 05:55:34;;;;;;;;;;;;;;;28.43;63.51;98971.66;5052717;28;19973;-72
2022/08/17 05:58:09;;;;;;;;;;;;;;;28.66;61.24;98962.00;5049593;28;19973;-74
2022/08/17 06:00:41;;;;;;;;;;;;;;;28.77;59.98;98960.81;5047218;28;19973;-74
2022/08/17 06:03:18;;;;;;;;;;;;;;;28.70;59.57;98968.59;5047190;28;20015;-72
2022/08/17 06:05:50;;;;;;;;;;;;;;;28.71;59.91;98964.97;5045171;28;20061;-74
2022/08/17 06:08:21;;;;;;;;;;;;;;;28.93;59.50;98969.47;5049859;28;19980;-76
2022/08/17 06:10:54;;;;;;;;;;;;;;;29.19;57.95;98979.72;5050154;28;20440;-74
2022/08/17 06:13:26;;;;;;;;;;;;;;;29.25;59.03;98980.84;5051057;28;19973;-75
2022/08/17 06:15:56;;;;;;;;;;;;;;;29.27;57.45;98974.44;5051127;28;19977;-72
2022/08/17 06:18:25;;;;;;;;;;;;;;;29.36;60.64;98977.81;5051509;28;19973;-74
2022/08/17 06:20:54;;;;;;;;;;;;;;;29.49;57.27;98975.41;5050711;28;19972;-72
2022/08/17 06:23:23;;;;;;;;;;;;;;;29.60;58.91;98980.25;5049479;28;20014;-74
2022/08/17 06:25:53;;;;;;;;;;;;;;;29.74;59.08;98976.03;5049228;28;20039;-75
2022/08/17 06:28:23;;;;;;;;;;;;;;;29.96;55.70;98981.31;5048704;28;19973;-73
2022/08/17 06:30:51;;;;;;;;;;;;;;;30.20;56.48;98980.25;5048770;28;19995;-73
2022/08/17 06:33:20;;;;;;;;;;;;;;;30.18;57.24;98983.06;5049040;28;19973;-74
2022/08/17 06:35:54;;;;;;;;;;;;;;;30.38;56.43;98983.34;5050976;28;19979;-75
2022/08/17 06:38:24;;;;;;;;;;;;;;;30.60;55.79;98986.94;5050341;28;19977;-76
2022/08/17 06:40:59;;;;;;;;;;;;;;;30.86;56.06;98981.97;5050483;28;19973;-72
2022/08/17 06:43:31;;;;;;;;;;;;;;;31.04;52.17;98985.09;5050590;28;19984;-75
2022/08/17 06:46:01;;;;;;;;;;;;;;;31.18;52.79;98978.91;5049763;28;20462;-76
2022/08/17 06:48:35;;;;;;;;;;;;;;;31.35;54.43;98976.84;5052222;28;19981;-74
2022/08/17 06:51:03;;;;;;;;;;;;;;;31.45;52.19;98979.19;5052455;28;20345;-74
2022/08/17 06:53:35;;;;;;;;;;;;;;;31.62;51.36;98975.28;5050180;28;19981;-72
2022/08/17 06:56:04;;;;;;;;;;;;;;;31.74;51.32;98971.13;5051919;28;19973;-73
2022/08/17 06:58:32;;;;;;;;;;;;;;;31.91;50.13;98972.47;5052569;28;19980;-73
2022/08/17 07:01:04;;;;;;;;;;;;;;;32.08;49.97;98973.88;5051965;28;19980;-72
2022/08/17 07:03:36;;;;;;;;;;;;;;;32.03;51.97;98976.22;5050610;28;19976;-71
2022/08/17 07:06:05;;;;;;;;;;;;;;;32.16;50.81;98975.53;5049031;28;20075;-76
2022/08/17 07:08:38;;;;;;;;;;;;;;;32.27;47.82;98971.53;5050645;28;20448;-73
2022/08/17 07:11:09;;;;;;;;;;;;;;;32.40;50.74;98966.28;5049374;28;19977;-75
2022/08/17 07:13:40;;;;;;;;;;;;;;;32.42;47.98;98969.56;5050791;28;20444;-78
2022/08/17 07:16:13;;;;;;;;;;;;;;;32.55;52.08;98974.94;5050958;28;19976;-78
2022/08/17 07:18:40;;;;;;;;;;;;;;;32.78;50.04;98970.19;5051072;28;20027;-76
2022/08/17 07:21:12;;;;;;;;;;;;;;;32.88;50.42;98970.63;5051094;28;19988;-77
2022/08/17 07:23:44;;;;;;;;;;;;;;;32.99;51.08;98969.25;5050292;28;19984;-76
2022/08/17 07:26:12;;;;;;;;;;;;;;;32.98;47.82;98970.25;5049092;28;20000;-77
2022/08/17 07:28:39;;;;;;;;;;;;;;;32.82;47.17;98963.47;5049785;28;20433;-77
2022/08/17 07:31:06;;;;;;;;;;;;;;;32.80;45.89;98968.13;5048092;28;19977;-76
2022/08/17 07:33:35;;;;;;;;;;;;;;;32.85;49.10;98971.03;5050183;28;20361;-76
2022/08/17 07:36:02;;;;;;;;;;;;;;;32.87;45.59;98974.28;5048789;28;20444;-74
2022/08/17 07:38:29;;;;;;;;;;;;;;;32.91;46.03;98978.19;5048856;28;19972;-75
2022/08/17 07:41:01;;;;;;;;;;;;;;;33.12;47.43;98967.44;5050821;28;20451;-74
2022/08/17 07:43:30;;;;;;;;;;;;;;;33.22;46.98;98975.84;5050095;28;20581;-75
2022/08/17 07:49:21;;;;;;;;;;;;;;;33.12;48.12;98971.97;4987649;28;20406;-73
2022/08/17 07:51:59;;;;;;;;;;;;;;;33.23;45.43;98969.53;5048801;28;19972;-74
2022/08/17 07:54:29;;;;;;;;;;;;;;;33.50;47.59;98964.25;5049311;28;20444;-74
2022/08/17 07:56:57;;;;;;;;;;;;;;;33.45;45.89;98967.50;5050175;28;19981;-74
2022/08/17 07:59:26;;;;;;;;;;;;;;;33.54;43.65;98962.84;5047540;28;19972;-72
2022/08/17 08:02:02;;;;;;;;;;;;;;;33.57;46.52;98963.22;5048942;28;19968;-75
2022/08/17 08:04:33;;;;;;;;;;;;;;;33.70;43.85;98965.13;5047851;28;19973;-73
2022/08/17 08:07:01;;;;;;;;;;;;;;;33.88;44.24;98967.97;5050187;28;19975;-73
2022/08/17 08:09:29;;;;;;;;;;;;;;;34.14;43.13;98967.97;5049524;28;20006;-73
2022/08/17 08:11:56;;;;;;;;;;;;;;;34.19;43.44;98960.16;5050068;28;19928;-73
2022/08/17 08:14:28;;;;;;;;;;;;;;;34.32;42.62;98958.50;5047975;28;19921;-74
2022/08/17 08:16:59;;;;;;;;;;;;;;;34.50;44.28;98956.81;5046840;28;20313;-74
2022/08/17 08:19:25;;;;;;;;;;;;;;;34.32;41.58;98950.50;5048922;28;19920;-72
2022/08/17 08:21:58;;;;;;;;;;;;;;;34.34;41.46;98956.47;5049683;28;19921;-74
2022/08/17 08:24:35;;;;;;;;;;;;;;;34.48;41.52;98955.38;5049022;28;19967;-73
2022/08/17 08:27:07;;;;;;;;;;;;;;;34.60;41.00;98951.06;5048526;28;20414;-75
2022/08/17 08:29:40;;;;;;;;;;;;;;;34.64;39.30;98949.59;5048806;28;19963;-74
2022/08/17 08:32:11;;;;;;;;;;;;;;;34.68;38.22;98948.16;5049792;28;19920;-76
2022/08/17 08:34:44;;;;;;;;;;;;;;;34.78;39.20;98948.53;5049726;28;19920;-76
2022/08/17 08:37:18;;;;;;;;;;;;;;;34.87;42.12;98941.94;5051797;28;19974;-77
2022/08/17 08:39:51;;;;;;;;;;;;;;;34.93;39.84;98946.41;5051993;28;20322;-75
2022/08/17 08:42:24;;;;;;;;;;;;;;;35.08;37.71;98938.94;5054276;28;19921;-77
2022/08/17 08:44:57;;;;;;;;;;;;;;;35.22;36.13;98942.38;5053496;28;19932;-76
2022/08/17 08:47:35;;;;;;;;;;;;;;;35.35;35.80;98938.81;5052875;28;19921;-78
2022/08/17 08:50:11;;;;;;;;;;;;;;;35.45;35.92;98941.78;5052908;28;19920;-76
2022/08/17 08:52:47;;;;;;;;;;;;;;;35.28;34.46;98944.97;5053885;28;20395;-77
2022/08/17 08:55:18;;;;;;;;;;;;;;;35.39;35.55;98940.81;5053112;28;19924;-79
2022/08/17 08:57:48;;;;;;;;;;;;;;;35.54;38.57;98940.50;5051931;28;19920;-78
2022/08/17 09:00:18;;;;;;;;;;;;;;;35.69;37.08;98936.50;5052549;28;20276;-78
2022/08/17 09:02:55;;;;;;;;;;;;;;;35.91;36.09;98931.56;5053298;28;19921;-77
2022/08/17 09:05:28;;;;;;;;;;;;;;;35.48;35.45;98938.72;5052190;28;19994;-78
2022/08/17 09:08:04;;;;;;;;;;;;;;;35.56;37.69;98941.09;5053049;28;19921;-79
2022/08/17 09:10:35;;;;;;;;;;;;;;;35.74;36.45;98925.97;5052756;28;19935;-79
2022/08/17 09:13:06;;;;;;;;;;;;;;;35.83;36.41;98932.66;5052787;28;19956;-79
2022/08/17 09:15:38;;;;;;;;;;;;;;;35.79;35.85;98930.69;5051344;28;19994;-81
2022/08/17 09:18:10;;;;;;;;;;;;;;;35.94;40.86;98923.13;5050780;28;19927;-80
2022/08/17 09:20:42;;;;;;;;;;;;;;;35.86;38.08;98922.59;5052447;28;19979;-79
2022/08/17 09:23:12;;;;;;;;;;;;;;;35.82;36.96;98922.22;5051408;28;20373;-80
2022/08/17 09:25:44;;;;;;;;;;;;;;;35.89;36.31;98916.84;5052391;28;19921;-79
2022/08/17 09:28:18;;;;;;;;;;;;;;;36.02;35.85;98919.38;5050055;28;19927;-79
2022/08/17 09:30:47;;;;;;;;;;;;;;;36.16;35.19;98905.69;5046845;28;20010;-79
2022/08/17 09:33:15;;;;;;;;;;;;;;;35.93;35.34;98905.47;5051824;28;19994;-77
2022/08/17 09:35:44;;;;;;;;;;;;;;;35.64;37.06;98906.19;5051997;28;20008;-78
2022/08/17 09:38:19;;;;;;;;;;;;;;;35.50;33.50;98912.63;5050084;28;19928;-79
2022/08/17 09:40:48;;;;;;;;;;;;;;;35.49;32.78;98924.31;5051057;28;19921;-78
2022/08/17 09:43:19;;;;;;;;;;;;;;;35.69;32.37;98919.69;5049297;28;19927;-74
2022/08/17 09:45:49;;;;;;;;;;;;;;;35.82;34.49;98916.91;5049562;28;20008;-76
2022/08/17 09:48:20;;;;;;;;;;;;;;;35.83;36.53;98912.38;5048828;28;19928;-78
2022/08/17 09:50:51;;;;;;;;;;;;;;;35.69;34.42;98914.34;5050862;28;19929;-75
2022/08/17 09:53:18;;;;;;;;;;;;;;;35.71;34.60;98913.09;5050319;28;19939;-76
2022/08/17 09:56:06;;;;;;;;;;;;;;;35.85;35.57;98912.97;5051015;28;19927;-75
2022/08/17 09:58:39;;;;;;;;;;;;;;;35.99;34.00;98912.63;5048379;28;19921;-75
2022/08/17 10:01:24;;;;;;;;;;;;;;;35.97;34.36;98911.19;5049235;28;19929;-73
2022/08/17 10:04:00;;;;;;;;;;;;;;;35.99;33.65;98904.63;5050273;28;20232;-77
2022/08/17 10:06:30;;;;;;;;;;;;;;;35.98;33.93;98907.50;5049752;28;19920;-78
2022/08/17 10:09:06;;;;;;;;;;;;;;;36.11;34.20;98910.88;5051319;28;20020;-78
2022/08/17 10:14:23;;;;;;;;;;;;;;;36.45;33.94;98908.66;5048898;28;20033;-76
2022/08/17 10:16:56;;;;;;;;;;;;;;;36.35;34.71;98892.34;5051158;28;19925;-75
2022/08/17 10:19:24;;;;;;;;;;;;;;;36.24;34.20;98902.72;5051694;28;19921;-75
2022/08/17 10:27:33;;;;;;;;;;;;;;;36.35;36.08;98892.34;5050081;28;19971;-76
2022/08/17 10:30:03;;;;;;;;;;;;;;;36.50;37.88;98884.75;5048919;28;19964;-78
2022/08/17 10:32:38;;;;;;;3.15;2.90;;;;;;;36.48;32.80;98886.84;5048875;28;19928;-65
2022/08/17 10:35:35;;;;;;;3.13;3.03;;;;;;;36.61;34.16;98886.69;5047344;28;20451;-65
2022/08/17 10:38:38;;;;;;;2.50;2.40;;;;;;;36.82;32.67;98878.19;5048799;28;20455;-66
2022/08/17 10:41:22;;;;;;;2.78;2.47;;;;;;;36.71;32.44;98876.25;5050361;28;20200;-64
2022/08/17 10:44:00;;;;;;;3.50;3.25;;;;;;;36.44;31.74;98891.00;5049156;28;20211;-63
2022/08/17 10:46:39;;;;;;;2.30;2.20;;;;;;;36.45;32.85;98871.28;5050823;28;20205;-66
2022/08/17 10:49:23;;;;;;;3.13;2.92;;;;;;;36.65;31.91;98872.66;5051192;28;20227;-64
2022/08/17 10:51:53;;;;;;;4.07;2.22;;;;;;;36.66;31.41;98878.81;5049561;28;20208;-65
2022/08/17 10:54:41;;;;;;;4.03;2.85;;;;;;;36.72;31.32;98873.38;5049993;28;20224;-65
2022/08/17 10:57:34;;;;;;;14.15;3.83;;;;;;;36.71;30.04;98871.75;5049307;28;20458;-70
2022/08/17 11:00:02;;;;;;;3.22;3.03;;;;;;;36.81;33.41;98871.19;5046247;28;20446;-73
2022/08/17 11:02:37;;;;;;;2.63;2.45;;;;;;;36.93;30.99;98865.91;5049772;28;20209;-74
2022/08/17 11:05:26;;;;;;;2.58;2.42;;;;;;;36.82;30.05;98870.16;5050154;28;20200;-73
2022/08/17 11:08:12;;;;;;;2.67;2.47;;;;;;;36.77;31.51;98859.34;5049526;28;20578;-74
2022/08/17 11:10:49;;;;;;;3.85;2.13;;;;;;;36.51;31.50;98859.69;5050591;28;20205;-73
2022/08/17 11:13:32;;;;;;;1.90;1.80;;;;;;;36.30;29.43;98848.44;5050775;28;20204;-73
2022/08/17 11:16:10;;;;;;;2.83;2.50;;;;;;;36.44;32.83;98849.09;5051004;28;20786;-73
2022/08/17 11:19:07;;;;;;;2.40;2.30;;;;;;;36.43;30.68;98847.44;5047433;28;20204;-72
2022/08/17 11:22:03;;;;;;;2.20;2.10;;;;;;;36.40;30.11;98847.09;5050246;28;20201;-74
2022/08/17 11:24:35;;;;;;;2.42;2.25;;;;;;;36.40;29.96;98847.91;5003858;28;20211;-74
2022/08/17 11:27:08;;;;;;;4.03;2.92;;;;;;;36.33;33.42;98836.50;5050032;28;20205;-74
2022/08/17 11:29:45;;;;;;;2.78;2.58;;;;;;;36.41;31.20;98833.53;5051000;28;20262;-73
2022/08/17 11:32:30;;;;;;;2.13;2.05;;;;;;;36.43;31.43;98841.28;5047549;28;20254;-75
2022/08/17 11:35:10;;;;;;;2.80;2.60;;;;;;;36.64;30.62;98843.50;5050063;28;20227;-75
2022/08/17 11:37:57;;;;;;;2.25;2.15;;;;;;;36.76;32.46;98833.66;5048119;28;20202;-74
2022/08/17 11:40:59;;;;;;;2.53;2.42;;;;;;;36.72;30.02;98832.50;5049053;28;20322;-74
2022/08/17 11:43:57;;;;;;;2.33;2.22;;;;;;;36.80;29.58;98824.16;5045810;28;20222;-73
2022/08/17 11:52:31;;;;;;;2.50;2.40;;;;;;;36.74;29.47;98835.72;5047716;28;20239;-73
2022/08/17 11:54:58;;;;;;;2.70;2.38;;;;;;;36.74;30.49;98833.06;5047962;28;20212;-74
2022/08/17 11:58:00;;;;;;;3.67;2.38;;;;;;;36.77;31.48;98817.41;5047541;28;20224;-71
2022/08/17 12:00:56;;;;;;;2.20;2.10;;;;;;;36.94;29.59;98822.91;5049015;28;20199;-73
2022/08/17 12:03:47;;;;;;;2.22;2.13;;;;;;;36.92;27.13;98824.19;5046842;28;20201;-73
2022/08/17 12:06:40;;;;;;;2.33;2.22;;;;;;;36.51;30.38;98792.91;5046352;28;20582;-73
2022/08/17 12:09:12;;;;;;;3.08;2.38;;;;;;;36.78;27.88;98818.22;5049238;28;20204;-71
2022/08/17 12:11:44;;;;;;;2.60;2.40;;;;;;;37.00;28.01;98811.31;5045292;28;20204;-73
2022/08/17 12:14:15;;;;;;;2.17;2.08;;;;;;;37.06;29.15;98810.41;5046450;28;20223;-73
2022/08/17 12:16:43;;;;;;;2.40;2.28;;;;;;;36.97;29.00;98809.06;5046220;28;20227;-74
2022/08/17 12:19:19;;;;;;;3.08;2.15;;;;;;;36.92;29.29;98803.63;5045574;28;20209;-73
2022/08/17 12:21:53;;;;;;;4.63;2.60;;;;;;;37.00;30.27;98805.97;5048887;28;20623;-73
2022/08/17 12:24:31;;;;;;;2.33;2.22;;;;;;;36.96;30.76;98803.97;5048554;28;20193;-74
2022/08/17 12:27:01;;;;;;;2.70;2.50;;;;;;;36.91;29.92;98801.97;5048981;28;20600;-72
2022/08/17 12:29:31;;;;;;;2.47;2.28;;;;;;;36.95;29.52;98797.00;5048459;28;20207;-73
2022/08/17 12:32:00;;;;;;;2.30;2.20;;;;;;;36.98;28.95;98801.88;5047358;28;20201;-79
2022/08/17 12:34:34;;;;;;;2.35;2.22;;;;;;;36.94;29.11;98801.53;5048663;28;20760;-75
2022/08/17 12:37:06;;;;;;;3.22;3.05;;;;;;;36.89;29.03;98797.91;5048918;28;20200;-74
2022/08/17 12:39:33;;;;;;;3.00;2.63;;;;;;;36.76;29.59;98793.59;5049362;28;20604;-75
2022/08/17 12:42:01;;;;;;;3.67;2.85;;;;;;;36.67;29.54;98801.13;5049258;28;20207;-73
2022/08/17 12:44:32;;;;;;;2.30;2.20;;;;;;;36.51;29.96;98806.28;5049176;28;20220;-73
2022/08/17 12:47:13;;;;;;;2.80;2.60;;;;;;;36.57;29.90;98802.72;5047373;28;20216;-74
2022/08/17 12:49:42;;;;;;;2.40;2.30;;;;;;;36.80;29.15;98792.09;5047378;28;20630;-73
2022/08/17 12:52:14;;;;;;;3.40;2.30;;;;;;;36.94;29.40;98793.50;5049080;28;20750;-76
2022/08/17 12:54:53;;;;;;;3.53;2.28;;;;;;;36.78;31.20;98780.81;5049023;28;20216;-74
2022/08/17 12:57:23;;;;;;;3.25;2.45;;;;;;;36.76;28.93;98789.06;5049225;28;20223;-73
2022/08/17 12:59:57;;;;;;;2.35;2.25;;;;;;;37.00;27.67;98797.97;5049270;28;20200;-73
2022/08/17 13:02:43;;;;;;;2.67;2.47;;;;;;;37.20;27.47;98792.28;5047579;28;20232;-75
2022/08/17 13:05:22;;;;;;;2.20;2.10;;;;;;;37.16;28.07;98789.25;5049963;28;20192;-73
2022/08/17 13:07:51;;;;;;;4.10;2.83;;;;;;;37.20;26.92;98795.78;5047433;28;20697;-74
2022/08/17 13:10:23;;;;;;;2.40;2.22;;;;;;;37.35;27.59;98796.13;5048681;28;20246;-73
2022/08/17 13:12:51;;;;;;;2.25;2.08;;;;;;;37.28;27.63;98768.69;5048931;28;20216;-74
2022/08/17 13:15:28;;;;;;;2.75;2.55;;;;;;;37.26;27.56;98786.81;5048360;28;20221;-74
2022/08/17 13:18:05;;;;;;;2.03;1.92;;;;;;;37.35;28.83;98788.09;5044399;28;20243;-74
2022/08/17 13:20:33;;;;;;;2.72;2.63;;;;;;;37.46;27.98;98791.03;5046256;28;20204;-70
2022/08/17 13:23:03;;;;;;;3.72;2.60;;;;;;;37.47;28.32;98790.81;5048522;28;20196;-71